createdAt,value
2019-05-22T00:02:25.134Z,99523.91
2019-05-22T00:05:03.543Z,99525.66
2019-05-22T00:07:37.001Z,99525.05
2019-05-22T00:10:11.035Z,99522.07
2019-05-22T00:12:46.962Z,99523.63
2019-05-22T00:15:18.900Z,99523.98
2019-05-22T00:17:51.784Z,99523.38
2019-05-22T00:20:27.348Z,99524.70
2019-05-22T00:22:59.663Z,99524.59
2019-05-22T00:25:33.506Z,99525.38
2019-05-22T00:28:07.015Z,99521.80
2019-05-22T00:30:42.123Z,99516.34
2019-05-22T00:33:15.030Z,99518.30
2019-05-22T00:35:47.435Z,99516.31
2019-05-22T00:38:21.380Z,99516.69
2019-05-22T00:41:03.567Z,99514.73
2019-05-22T00:43:42.160Z,99515.67
2019-05-22T00:46:19.068Z,99508.75
2019-05-22T00:48:54.278Z,99504.63
2019-05-22T00:51:41.031Z,99502.88
2019-05-22T00:54:38.879Z,99504.79
2019-05-22T00:57:39.807Z,99506.22
2019-05-22T01:00:30.958Z,99500.38
2019-05-22T01:03:05.777Z,99495.68
2019-05-22T01:05:41.797Z,99493.88
2019-05-22T01:08:16.934Z,99497.41
2019-05-22T01:10:53.149Z,99493.70
2019-05-22T01:13:27.897Z,99497.29
2019-05-22T01:16:01.601Z,99498.77
2019-05-22T01:18:36.011Z,99499.89
2019-05-22T01:21:10.488Z,99495.38
2019-05-22T01:23:43.767Z,99495.85
2019-05-22T01:26:19.370Z,99494.81
2019-05-22T01:28:53.773Z,99489.91
2019-05-22T01:31:42.146Z,99495.52
2019-05-22T01:34:20.943Z,99497.16
2019-05-22T01:36:56.711Z,99487.64
2019-05-22T01:40:09.373Z,99493.73
2019-05-22T01:42:45.220Z,99490.27
2019-05-22T01:45:18.744Z,99499.54
2019-05-22T01:47:56.946Z,99493.73
2019-05-22T01:50:57.687Z,99492.06
2019-05-22T01:53:36.163Z,99486.05
2019-05-22T01:56:11.766Z,99482.39
2019-05-22T01:58:45.390Z,99478.78
2019-05-22T02:01:22.224Z,99480.20
2019-05-22T02:03:56.821Z,99473.99
2019-05-22T02:06:30.194Z,99478.97
2019-05-22T02:09:17.274Z,99473.34
2019-05-22T02:11:54.464Z,99480.22
2019-05-22T02:14:27.686Z,99475.45
2019-05-22T02:17:01.440Z,99476.95
2019-05-22T02:19:33.968Z,99480.58
2019-05-22T02:22:06.931Z,99482.39
2019-05-22T02:24:39.396Z,99490.20
2019-05-22T02:27:13.939Z,99493.56
2019-05-22T02:29:47.466Z,99503.33
2019-05-22T02:32:20.933Z,99499.85
2019-05-22T02:34:54.245Z,99492.55
2019-05-22T02:37:27.533Z,99489.14
2019-05-22T02:40:00.019Z,99489.45
2019-05-22T02:42:33.190Z,99487.73
2019-05-22T02:45:08.265Z,99485.36
2019-05-22T02:47:40.862Z,99488.81
2019-05-22T02:50:14.102Z,99484.95
2019-05-22T02:52:46.129Z,99486.85
2019-05-22T02:55:19.229Z,99490.77
2019-05-22T02:57:52.033Z,99502.15
2019-05-22T03:00:26.720Z,99507.53
2019-05-22T03:03:01.765Z,99515.36
2019-05-22T03:05:33.975Z,99524.23
2019-05-22T03:08:07.258Z,99526.80
2019-05-22T03:10:38.907Z,99525.64
2019-05-22T03:13:12.698Z,99528.98
2019-05-22T03:15:45.499Z,99524.48
2019-05-22T03:18:21.719Z,99521.47
2019-05-22T03:20:53.817Z,99523.17
2019-05-22T03:23:43.746Z,99530.92
2019-05-22T03:26:17.054Z,99526.16
2019-05-22T03:28:49.766Z,99522.70
2019-05-22T03:31:23.419Z,99519.03
2019-05-22T03:33:56.512Z,99517.77
2019-05-22T03:36:29.160Z,99519.00
2019-05-22T03:39:01.767Z,99519.83
2019-05-22T03:41:35.842Z,99519.13
2019-05-22T03:44:07.381Z,99519.84
2019-05-22T03:46:45.826Z,99521.32
2019-05-22T03:49:30.052Z,99516.27
2019-05-22T03:51:56.428Z,99522.55
2019-05-22T03:54:30.145Z,99523.25
2019-05-22T03:57:02.096Z,99529.78
2019-05-22T03:59:34.650Z,99532.28
2019-05-22T04:02:08.757Z,99536.85
2019-05-22T04:04:42.565Z,99539.27
2019-05-22T04:07:19.398Z,99537.05
2019-05-22T04:09:53.613Z,99529.25
2019-05-22T04:12:27.037Z,99537.88
2019-05-22T04:15:11.163Z,99526.62
2019-05-22T04:17:44.438Z,99530.09
2019-05-22T04:20:25.440Z,99525.70
2019-05-22T04:22:59.020Z,99526.72
2019-05-22T04:25:34.894Z,99525.73
2019-05-22T04:28:07.779Z,99529.31
2019-05-22T04:30:40.018Z,99534.61
2019-05-22T04:33:13.001Z,99526.91
2019-05-22T04:35:44.930Z,99523.87
2019-05-22T04:38:17.143Z,99522.02
2019-05-22T04:40:55.743Z,99526.67
2019-05-22T04:43:32.202Z,99527.69
2019-05-22T04:46:10.031Z,99527.17
2019-05-22T04:48:46.152Z,99520.89
2019-05-22T04:51:29.167Z,99515.96
2019-05-22T04:54:01.563Z,99515.42
2019-05-22T04:56:34.099Z,99525.17
2019-05-22T04:59:06.948Z,99523.38
2019-05-22T05:01:39.241Z,99527.16
2019-05-22T05:04:14.267Z,99521.66
2019-05-22T05:06:46.589Z,99522.10
2019-05-22T05:09:19.749Z,99520.37
2019-05-22T05:11:54.099Z,99526.22
2019-05-22T05:14:26.471Z,99532.52
2019-05-22T05:16:59.242Z,99535.16
2019-05-22T05:19:33.182Z,99534.78
2019-05-22T05:22:05.306Z,99534.45
2019-05-22T05:24:44.357Z,99528.50
2019-05-22T05:27:16.800Z,99526.51
2019-05-22T05:29:49.328Z,99526.54
2019-05-22T05:32:21.046Z,99521.22
2019-05-22T05:34:59.491Z,99520.77
2019-05-22T05:37:32.194Z,99519.68
2019-05-22T05:40:39.669Z,99519.78
2019-05-22T05:43:14.464Z,99502.12
2019-05-22T05:45:50.075Z,99515.73
2019-05-22T05:48:24.416Z,99509.95
2019-05-22T05:51:27.631Z,99518.69
2019-05-22T05:54:05.847Z,99524.22
2019-05-22T05:56:41.055Z,99529.31
2019-05-22T05:59:14.172Z,99525.29
2019-05-22T06:01:56.037Z,99533.34
2019-05-22T06:04:35.477Z,99532.70
2019-05-22T06:07:26.893Z,99533.62
2019-05-22T06:10:31.522Z,99538.87
2019-05-22T06:13:05.362Z,99547.78
2019-05-22T06:15:59.163Z,99552.25
2019-05-22T06:18:36.522Z,99548.03
2019-05-22T06:21:10.024Z,99552.33
2019-05-22T06:24:19.149Z,99561.45
2019-05-22T06:27:27.203Z,99554.14
2019-05-22T06:30:07.292Z,99559.80
2019-05-22T06:33:18.137Z,99551.67
2019-05-22T06:35:51.587Z,99547.50
2019-05-22T06:39:05.113Z,99561.94
2019-05-22T06:41:38.698Z,99550.16
2019-05-22T06:44:42.722Z,99553.42
2019-05-22T06:47:22.117Z,99555.31
2019-05-22T06:49:58.663Z,99551.94
2019-05-22T06:52:30.915Z,99550.92
2019-05-22T06:55:03.516Z,99542.86
2019-05-22T06:57:36.222Z,99540.24
2019-05-22T07:00:28.708Z,99539.55
2019-05-22T07:03:02.042Z,99540.94
2019-05-22T07:05:34.035Z,99546.80
2019-05-22T07:08:07.316Z,99539.27
2019-05-22T07:10:41.428Z,99535.20
2019-05-22T07:13:14.320Z,99542.06
2019-05-22T07:15:50.484Z,99537.37
2019-05-22T07:18:26.804Z,99541.68
2019-05-22T07:20:59.741Z,99538.19
2019-05-22T07:23:33.056Z,99542.47
2019-05-22T07:26:06.113Z,99535.77
2019-05-22T07:28:39.990Z,99534.77
2019-05-22T07:31:11.779Z,99530.97
2019-05-22T07:33:44.078Z,99531.52
2019-05-22T07:36:17.551Z,99523.91
2019-05-22T07:38:50.292Z,99532.53
2019-05-22T07:41:23.872Z,99535.55
2019-05-22T07:43:55.324Z,99542.53
2019-05-22T07:46:30.782Z,99545.56
2019-05-22T07:49:01.925Z,99542.73
2019-05-22T07:51:51.406Z,99536.48
2019-05-22T07:54:09.437Z,99539.39
2019-05-22T07:56:42.974Z,99546.53
2019-05-22T07:59:15.344Z,99549.58
2019-05-22T08:01:47.896Z,99550.44
2019-05-22T08:04:20.905Z,99551.04
2019-05-22T08:06:53.873Z,99554.69
2019-05-22T08:09:28.063Z,99554.92
2019-05-22T08:12:01.208Z,99556.08
2019-05-22T08:18:22.068Z,99552.90
2019-05-22T08:20:54.039Z,99541.41
2019-05-22T08:23:27.898Z,99538.66
2019-05-22T08:26:00.753Z,99549.67
2019-05-22T08:28:33.686Z,99555.31
2019-05-22T08:31:07.686Z,99552.92
2019-05-22T08:33:40.121Z,99545.95
2019-05-22T08:36:12.533Z,99558.23
2019-05-22T08:38:45.889Z,99552.16
2019-05-22T08:41:22.834Z,99548.73
2019-05-22T08:44:14.747Z,99548.66
2019-05-22T08:46:30.205Z,99543.09
2019-05-22T08:49:03.240Z,99541.73
2019-05-22T08:51:35.787Z,99540.91
2019-05-22T08:54:08.141Z,99537.19
2019-05-22T08:56:43.905Z,99537.95
2019-05-22T08:59:19.860Z,99531.84
2019-05-22T09:01:57.694Z,99532.81
2019-05-22T09:04:30.016Z,99536.03
2019-05-22T09:07:02.064Z,99536.73
2019-05-22T09:09:34.784Z,99529.59
2019-05-22T09:12:08.519Z,99537.88
2019-05-22T09:14:40.889Z,99519.91
2019-05-22T09:17:17.262Z,99538.05
2019-05-22T09:19:49.015Z,99524.59
2019-05-22T09:22:21.329Z,99533.72
2019-05-22T09:24:54.131Z,99526.47
2019-05-22T09:27:26.379Z,99531.51
2019-05-22T09:29:58.651Z,99534.39
2019-05-22T09:32:31.117Z,99536.66
2019-05-22T09:35:03.327Z,99524.94
2019-05-22T09:37:35.847Z,99525.30
2019-05-22T09:40:10.208Z,99532.95
2019-05-22T09:42:43.306Z,99527.41
2019-05-22T09:45:19.004Z,99524.73
2019-05-22T09:47:54.181Z,99523.69
2019-05-22T09:50:26.297Z,99521.37
2019-05-22T09:53:23.863Z,99520.03
2019-05-22T09:55:56.058Z,99525.21
2019-05-22T09:58:28.985Z,99524.16
2019-05-22T10:01:01.935Z,99521.34
2019-05-22T10:03:34.236Z,99524.82
2019-05-22T10:06:07.385Z,99524.85
2019-05-22T10:08:42.854Z,99524.48
2019-05-22T10:11:17.953Z,99520.58
2019-05-22T10:13:55.503Z,99511.50
2019-05-22T10:16:27.564Z,99511.05
2019-05-22T10:19:00.255Z,99507.47
2019-05-22T10:21:32.455Z,99508.07
2019-05-22T10:24:05.799Z,99505.27
2019-05-22T10:26:38.152Z,99506.34
2019-05-22T10:29:10.678Z,99503.13
2019-05-22T10:31:43.206Z,99502.88
2019-05-22T10:34:15.466Z,99512.82
2019-05-22T10:36:48.074Z,99507.00
2019-05-22T10:39:24.617Z,99489.81
2019-05-22T10:41:58.361Z,99501.12
2019-05-22T10:44:30.934Z,99501.30
2019-05-22T10:47:02.627Z,99511.78
2019-05-22T10:49:36.325Z,99509.41
2019-05-22T10:52:08.909Z,99512.27
2019-05-22T10:54:40.819Z,99515.01
2019-05-22T10:57:14.192Z,99520.52
2019-05-22T10:59:46.383Z,99518.58
2019-05-22T11:02:18.811Z,99514.34
2019-05-22T11:04:53.938Z,99519.08
2019-05-22T11:07:26.343Z,99527.75
2019-05-22T11:09:59.555Z,99520.19
2019-05-22T11:12:32.671Z,99520.09
2019-05-22T11:15:09.432Z,99517.89
2019-05-22T11:17:41.850Z,99512.32
2019-05-22T11:20:14.553Z,99507.25
2019-05-22T11:22:46.906Z,99494.03
2019-05-22T11:25:20.550Z,99503.66
2019-05-22T11:27:53.502Z,99497.78
2019-05-22T11:30:26.189Z,99505.08
2019-05-22T11:32:58.496Z,99509.62
2019-05-22T11:35:34.143Z,99496.55
2019-05-22T11:38:13.000Z,99509.45
2019-05-22T11:40:56.598Z,99516.55
2019-05-22T11:43:35.643Z,99503.42
2019-05-22T11:46:11.546Z,99506.58
2019-05-22T11:48:43.316Z,99518.22
2019-05-22T11:51:17.360Z,99495.94
2019-05-22T11:53:49.881Z,99507.70
2019-05-22T11:56:21.958Z,99509.98
2019-05-22T11:58:54.840Z,99508.52
2019-05-22T12:01:26.319Z,99497.39
2019-05-22T12:04:01.004Z,99495.57
2019-05-22T12:06:35.871Z,99505.53
2019-05-22T12:09:10.108Z,99502.02
2019-05-22T12:11:43.402Z,99500.29
2019-05-22T12:14:17.328Z,99498.45
2019-05-22T12:16:53.306Z,99501.20
2019-05-22T12:19:30.067Z,99504.27
2019-05-22T12:22:05.666Z,99496.58
2019-05-22T12:25:01.727Z,99497.84
2019-05-22T12:27:38.522Z,99487.12
2019-05-22T12:30:15.051Z,99490.43
2019-05-22T12:32:50.380Z,99488.56
2019-05-22T12:35:48.744Z,99481.91
2019-05-22T12:38:28.601Z,99475.83
2019-05-22T12:41:15.448Z,99461.45
2019-05-22T12:43:54.560Z,99476.60
2019-05-22T12:46:28.654Z,99471.19
2019-05-22T12:49:08.376Z,99475.22
2019-05-22T12:51:39.613Z,99477.16
2019-05-22T12:54:19.403Z,99480.22
2019-05-22T12:57:04.483Z,99467.34
2019-05-22T12:59:43.708Z,99466.69
2019-05-22T13:02:26.376Z,99464.02
2019-05-22T13:05:13.979Z,99463.67
2019-05-22T13:09:08.952Z,99469.94
2019-05-22T13:15:43.226Z,99478.07
2019-05-22T13:18:22.034Z,99474.08
2019-05-22T13:20:55.170Z,99485.34
2019-05-22T13:23:34.326Z,99477.88
2019-05-22T13:26:06.819Z,99479.16
2019-05-22T13:28:43.212Z,99477.38
2019-05-22T13:31:16.903Z,99480.15
2019-05-22T13:33:53.031Z,99478.23
2019-05-22T13:36:25.347Z,99480.41
2019-05-22T13:38:57.974Z,99482.42
2019-05-22T13:41:30.450Z,99489.11
2019-05-22T13:44:03.973Z,99479.50
2019-05-22T13:46:37.047Z,99486.02
2019-05-22T13:49:08.589Z,99495.95
2019-05-22T13:51:41.737Z,99501.84
2019-05-22T13:54:14.947Z,99495.92
2019-05-22T13:57:04.545Z,99495.45
2019-05-22T13:59:37.987Z,99500.14
2019-05-22T14:02:09.967Z,99498.01
2019-05-22T14:04:42.712Z,99503.18
2019-05-22T14:07:15.221Z,99490.50
2019-05-22T14:09:47.366Z,99492.02
2019-05-22T14:12:20.290Z,99496.01
2019-05-22T14:14:52.915Z,99492.61
2019-05-22T14:17:25.472Z,99499.41
2019-05-22T14:19:58.407Z,99493.79
2019-05-22T14:22:30.096Z,99495.59
2019-05-22T14:25:02.551Z,99491.28
2019-05-22T14:27:34.966Z,99484.30
2019-05-22T14:30:07.916Z,99487.55
2019-05-22T14:32:40.441Z,99487.96
2019-05-22T14:35:14.001Z,99487.88
2019-05-22T14:37:46.350Z,99484.98
2019-05-22T14:40:20.265Z,99487.44
2019-05-22T14:42:51.837Z,99481.52
2019-05-22T14:45:24.790Z,99488.97
2019-05-22T14:48:00.201Z,99496.28
2019-05-22T14:50:33.377Z,99494.50
2019-05-22T14:53:05.822Z,99476.79
2019-05-22T14:55:39.186Z,99471.97
2019-05-22T14:58:12.824Z,99471.58
2019-05-22T15:00:45.103Z,99471.34
2019-05-22T15:03:19.056Z,99475.05
2019-05-22T15:05:52.026Z,99476.84
2019-05-22T15:08:24.086Z,99470.72
2019-05-22T15:10:57.777Z,99470.22
2019-05-22T15:13:30.818Z,99467.02
2019-05-22T15:16:02.465Z,99472.22
2019-05-22T15:18:34.818Z,99480.24
2019-05-22T15:21:08.472Z,99471.22
2019-05-22T15:23:41.947Z,99464.02
2019-05-22T15:26:15.021Z,99460.27
2019-05-22T15:28:47.334Z,99461.83
2019-05-22T15:31:19.877Z,99453.80
2019-05-22T15:33:52.250Z,99457.34
2019-05-22T15:36:25.261Z,99456.41
2019-05-22T15:38:58.157Z,99453.14
2019-05-22T15:41:30.438Z,99453.47
2019-05-22T15:44:02.516Z,99461.66
2019-05-22T15:46:35.135Z,99466.48
2019-05-22T15:49:09.044Z,99466.83
2019-05-22T15:51:42.835Z,99472.47
2019-05-22T15:54:18.036Z,99464.23
2019-05-22T15:56:52.951Z,99468.63
2019-05-22T15:59:27.972Z,99462.69
2019-05-22T16:02:05.235Z,99466.28
2019-05-22T16:04:41.416Z,99465.73
2019-05-22T16:07:15.271Z,99465.73
2019-05-22T16:09:50.714Z,99474.31
2019-05-22T16:12:25.377Z,99462.41
2019-05-22T16:14:57.572Z,99463.08
2019-05-22T16:17:32.716Z,99464.08
2019-05-22T16:20:05.350Z,99462.80
2019-05-22T16:22:37.855Z,99455.77
2019-05-22T16:25:11.460Z,99461.14
2019-05-22T16:27:45.772Z,99471.80
2019-05-22T16:30:21.504Z,99466.25
2019-05-22T16:32:56.328Z,99471.59
2019-05-22T16:35:28.485Z,99463.34
2019-05-22T16:38:06.925Z,99468.39
2019-05-22T16:40:45.586Z,99470.08
2019-05-22T16:43:24.136Z,99471.78
2019-05-22T16:45:56.769Z,99465.16
2019-05-22T16:48:32.760Z,99474.13
2019-05-22T16:51:05.249Z,99472.20
2019-05-22T16:53:40.652Z,99470.87
2019-05-22T16:56:13.055Z,99475.52
2019-05-22T16:58:47.108Z,99471.91
2019-05-22T17:01:24.457Z,99475.20
2019-05-22T17:03:59.835Z,99479.98
2019-05-22T17:06:33.510Z,99477.66
2019-05-22T17:09:08.897Z,99468.22
2019-05-22T17:11:42.627Z,99463.45
2019-05-22T17:14:17.935Z,99465.92
2019-05-22T17:16:52.976Z,99476.84
2019-05-22T17:19:27.567Z,99477.19
2019-05-22T17:22:00.173Z,99473.20
2019-05-22T17:24:34.309Z,99478.46
2019-05-22T17:27:08.244Z,99471.52
2019-05-22T17:29:41.572Z,99463.89
2019-05-22T17:32:26.793Z,99458.58
2019-05-22T17:35:00.370Z,99460.68
2019-05-22T17:37:34.075Z,99455.17
2019-05-22T17:40:08.853Z,99444.26
2019-05-22T17:42:41.350Z,99448.50
2019-05-22T17:45:16.708Z,99456.44
2019-05-22T17:47:50.135Z,99458.05
2019-05-22T17:50:26.853Z,99458.32
2019-05-22T17:52:58.854Z,99461.78
2019-05-22T17:55:32.189Z,99453.63
2019-05-22T17:58:06.198Z,99459.20
2019-05-22T18:00:41.335Z,99467.13
2019-05-22T18:03:13.296Z,99465.38
2019-05-22T18:05:45.400Z,99470.66
2019-05-22T18:08:18.150Z,99475.59
2019-05-22T18:10:51.206Z,99479.00
2019-05-22T18:13:24.074Z,99473.98
2019-05-22T18:15:59.448Z,99479.69
2019-05-22T18:18:31.625Z,99487.81
2019-05-22T18:21:04.259Z,99486.64
2019-05-22T18:23:36.143Z,99486.08
2019-05-22T18:26:08.584Z,99488.80
2019-05-22T18:28:42.108Z,99493.36
2019-05-22T18:31:24.335Z,99499.63
2019-05-22T18:33:56.899Z,99506.69
2019-05-22T18:36:28.486Z,99511.08
2019-05-22T18:39:30.354Z,99508.64
2019-05-22T18:42:04.962Z,99513.40
2019-05-22T18:44:46.708Z,99516.44
2019-05-22T18:47:26.556Z,99520.41
2019-05-22T18:50:02.292Z,99523.34
2019-05-22T18:52:40.982Z,99518.61
2019-05-22T18:55:27.682Z,99518.80
2019-05-22T18:58:02.162Z,99518.56
2019-05-22T19:00:37.222Z,99519.29
2019-05-22T19:03:13.310Z,99519.91
2019-05-22T19:05:45.447Z,99521.58
2019-05-22T19:08:23.912Z,99518.31
2019-05-22T19:10:56.419Z,99519.98
2019-05-22T19:13:28.037Z,99513.31
2019-05-22T19:16:04.264Z,99517.23
2019-05-22T19:18:40.679Z,99520.02
2019-05-22T19:21:17.497Z,99519.77
2019-05-22T19:23:50.119Z,99521.05
2019-05-22T19:26:23.499Z,99521.33
2019-05-22T19:28:59.078Z,99519.00
2019-05-22T19:31:31.585Z,99527.31
2019-05-22T19:34:03.280Z,99520.83
2019-05-22T19:36:36.631Z,99522.63
2019-05-22T19:39:10.379Z,99519.47
2019-05-22T19:41:42.664Z,99509.95
2019-05-22T19:44:15.595Z,99498.92
2019-05-22T19:46:48.426Z,99491.95
2019-05-22T19:49:20.973Z,99499.63
2019-05-22T19:51:54.162Z,99495.57
2019-05-22T19:54:26.874Z,99490.47
2019-05-22T19:57:04.742Z,99484.85
2019-05-22T19:59:38.330Z,99492.69
2019-05-22T20:02:12.464Z,99497.56
2019-05-22T20:04:44.815Z,99492.88
2019-05-22T20:07:18.117Z,99493.84
2019-05-22T20:09:51.515Z,99490.10
2019-05-22T20:12:24.944Z,99493.70
2019-05-22T20:14:58.590Z,99491.66
2019-05-22T20:17:30.562Z,99486.77
2019-05-22T20:20:02.360Z,99480.28
2019-05-22T20:22:35.018Z,99478.67
2019-05-22T20:25:08.883Z,99483.34
2019-05-22T20:27:41.697Z,99479.95
2019-05-22T20:30:15.826Z,99484.58
2019-05-22T20:32:47.718Z,99480.09
2019-05-22T20:35:20.504Z,99480.92
2019-05-22T20:37:52.471Z,99476.28
2019-05-22T20:40:25.157Z,99471.02
2019-05-22T20:42:58.133Z,99463.68
2019-05-22T20:45:30.710Z,99464.17
2019-05-22T20:48:12.489Z,99468.42
2019-05-22T20:50:44.816Z,99461.49
2019-05-22T20:53:17.401Z,99460.58
2019-05-22T20:55:50.453Z,99461.58
2019-05-22T20:58:24.081Z,99463.99
2019-05-22T21:00:55.726Z,99461.63
2019-05-22T21:03:27.795Z,99467.05
2019-05-22T21:06:00.179Z,99465.26
2019-05-22T21:08:33.455Z,99461.44
2019-05-22T21:11:08.831Z,99464.26
2019-05-22T21:13:40.918Z,99460.05
2019-05-22T21:16:14.806Z,99463.99
2019-05-22T21:18:51.873Z,99457.76
2019-05-22T21:21:25.652Z,99463.02
2019-05-22T21:24:10.599Z,99450.56
2019-05-22T21:26:32.041Z,99450.21
2019-05-22T21:29:05.122Z,99447.93
2019-05-22T21:31:38.117Z,99450.08
2019-05-22T21:34:10.208Z,99453.27
2019-05-22T21:36:42.816Z,99443.79
2019-05-22T21:39:31.627Z,99449.00
2019-05-22T21:42:29.980Z,99440.31
2019-05-22T21:45:27.723Z,99443.94
2019-05-22T21:48:41.770Z,99446.89
2019-05-22T21:51:37.585Z,99439.48
2019-05-22T21:54:49.708Z,99438.33
2019-05-22T21:57:28.093Z,99434.50
2019-05-22T22:00:00.997Z,99440.67
2019-05-22T22:02:51.064Z,99437.08
2019-05-22T22:08:54.231Z,99437.91
2019-05-22T22:11:29.406Z,99435.41
2019-05-22T22:14:01.621Z,99435.98
2019-05-22T22:16:33.660Z,99428.39
2019-05-22T22:19:07.612Z,99424.93
2019-05-22T22:21:40.842Z,99424.23
2019-05-22T22:24:14.801Z,99425.61
2019-05-22T22:26:50.769Z,99425.67
2019-05-22T22:29:23.328Z,99426.16
2019-05-22T22:31:58.640Z,99428.91
2019-05-22T22:34:47.641Z,99436.80
2019-05-22T22:37:19.936Z,99430.78
2019-05-22T22:39:56.727Z,99430.74
2019-05-22T22:42:31.705Z,99436.89
2019-05-22T22:45:06.286Z,99436.47
2019-05-22T22:47:41.106Z,99439.16
2019-05-22T22:50:14.014Z,99433.36
2019-05-22T22:52:48.891Z,99437.91
2019-05-22T22:55:23.410Z,99437.42
2019-05-22T22:57:56.800Z,99438.80
2019-05-22T23:00:40.238Z,99434.48
2019-05-22T23:03:14.352Z,99430.67
2019-05-22T23:05:49.522Z,99420.70
2019-05-22T23:08:26.161Z,99426.09
2019-05-22T23:10:57.769Z,99416.06
2019-05-22T23:13:30.910Z,99415.84
2019-05-22T23:16:04.655Z,99415.20
2019-05-22T23:19:31.462Z,99414.80
2019-05-22T23:22:03.577Z,99408.59
2019-05-22T23:24:39.075Z,99406.77
2019-05-22T23:27:13.631Z,99403.52
2019-05-22T23:29:46.265Z,99392.27
2019-05-22T23:32:21.214Z,99392.02
2019-05-22T23:34:54.935Z,99388.91
2019-05-22T23:37:27.812Z,99389.61
2019-05-22T23:40:00.212Z,99385.32
2019-05-22T23:42:39.767Z,99387.39
2019-05-22T23:45:17.020Z,99385.67
2019-05-22T23:48:17.582Z,99385.84
2019-05-22T23:50:50.191Z,99393.38
2019-05-22T23:53:24.242Z,99397.38
2019-05-22T23:55:56.914Z,99397.67
2019-05-22T23:58:29.414Z,99392.45
